首页
METAR-TAF:

METAR-TAF

机场 :

Lewiston-Nez Perce County Airport

刘易斯顿, 爱达荷州, 美国

纬度: 46-22-29N, 经度: 117-00-52W, 海拔: 438米

当前天气观测

该预报发布于22分钟前的11:56 UTC
风速3节,风向东转东南
温度 12°C
湿度 67%
气压 1013 hPa
能見度: 16.1公里
天空无云

METAR: KLWS 151156Z AUTO 12003KT 10SM CLR 12/06 A2990 RMK AO2 SLP122 T01220061 10183 20122 53016

时间: 05:18 (12:18 UTC)

预报

该预报发布于58分钟前的11:20 UTC
预报有效从15日的 12点(UTC)到 16日的 12点(UTC)
风速6节,风向多变
能見度: 10公里
少量云层高于12000英尺
散云层高于25000英尺
从 15日的 1600点(UTC)
风速10节,风向西转西北,有时为20节阵风
能見度: 10公里
少量云层高于3000英尺
多云层高于25000英尺
从 15日的 2200点(UTC)
风速14节,风向西转西北,有时为24节阵风
能見度: 10公里
散云层高于5000英尺
散云层高于25000英尺
从 16日的 0600点(UTC)
风速10节,风向西
能見度: 10公里
多云层高于25000英尺

TAF: KLWS 151120Z 1512/1612 VRB06KT P6SM FEW120 SCT250 FM151600 30010G20KT P6SM FEW030 BKN250 FM152200 29014G24KT P6SM SCT050 SCT250 FM160600 27010KT P6SM BKN250

超过4000个机场的气象观测和天气预报(METAR&TAF报告)。

可查询的气象台以黄色和红色小点在地图上表示。

将鼠标移到小点上方,可查看气象台名称。

然后点击查看天气观测和预报。

如需切换地图:点击带黑十字的绿色按钮放大地图;点击带横线的绿色按钮缩小地图;或者点击绿色箭头查看邻近地区的地图。


METAR-TAF: